Беслан

Карта отелей и гостиниц, располагающихся рядом с аэропортом Беслан :

Беслан
Владикавказ
Северная Осетия - Алания 43° 12' 18.6516" N, 44° 36' 24.2784" E
Код аэродрома ИКАО
URMO
Код аэродрома RU
УРМО
Координаты
N43.20518° E044.60674°
Превышение над уровнем моря
510
Основная полоса
09/27
Курс магнитный
094,5/274,5
Длина основной ВПП
3004
Ширина основной ВПП
45
Покрытие основной ВПП
Твёрдое (бетон)
Освещение ВПП
Постоянное
Тип: 
Аэродром
Класс аэродрома: 
Международный
Принадлежность: 
ГА
Статус: 
Действующий
Сайт: 
www.mav.aero
E-mail аэродрома: 
info@mav.aero
Страна: 
Россия
Регион: 
Северная Осетия - Алания
Город: 
Владикавказ
Дополнительная информация: 
Горный. Оператор: ОАО "Международный аэропорт Владикавказ" (ОАО "МАВ"). Нкр.=(800)м. Грузонапряженность до 195 тонн.
Схемы аэропортов: 
Погода: 

Авиационная погода во Владикавказе

Регион: 
Погода METAR: 
URMO 170300Z AUTO 09003MPS 9999 // ///////// 19/12 Q1004 RMK QFE710/0947
Время наблюдения
2021-05-17T03:00:00Z
Температура C
19.0
Точка росы
12.0
Направление ветра
90
Скорость ветра (узлы)
6
Метео видимость
6.21
Явления погоды
Условия полета
Аэропорт подробнее: 

Найти трансфер

С помощью этой формы Вы можете найти трансфер из аэропорта Беслан в город, аэропорт или вокзал:

Карта места

Javascript is required to view this map.

Погода в аэропортах:

Авиационная погода в Ровно

Регион: 
Погода METAR: 
UKLR 161400Z 07005MPS 040V100 9999 TS FEW025CB SCT025 20/13 Q1006 NOSIG
Время наблюдения
2021-05-16T14:00:00Z
Температура C
20.0
Точка росы
13.0
Направление ветра
70
Скорость ветра (узлы)
10
Метео видимость
6.21
Явления погоды
TS
Условия полета
VFR
Аэропорт подробнее: 

Авиационная погода в Гродно

Регион: 
Погода METAR: 
UMMG 161400Z 13006G09MPS 9000 -SHRA BKN033CB BKN066 20/10 Q1005 NOSIG
Время наблюдения
2021-05-16T14:00:00Z
Температура C
20.0
Точка росы
10.0
Направление ветра
130
Скорость ветра (узлы)
12
Метео видимость
5.59
Явления погоды
-SHRA
Условия полета
VFR
Аэропорт подробнее: 

Авиационная погода в Ботсфьорде

Регион: 
Погода METAR: 
ENBS 162050Z 14017KT 9999 7000NE VCSH SCT008 BKN022 01/M01 Q1011
Время наблюдения
2021-05-16T20:50:00Z
Температура C
1.0
Точка росы
-1.0
Направление ветра
140
Скорость ветра (узлы)
17
Метео видимость
6.21
Явления погоды
VCSH
Условия полета
MVFR

Авиационная погода в аэропорту Сокол

Регион: 
Погода METAR: 
UHMM 170300Z 10006MPS 9999 -SHRA BKN012 OVC016CB 03/02 Q1000 R10/290350 TEMPO 3100 -SHRASN RMK MT OBSC QFE736 R28/13007MPS
Время наблюдения
2021-05-17T03:00:00Z
Температура C
3.0
Точка росы
2.0
Направление ветра
100
Скорость ветра (узлы)
12
Метео видимость
6.21
Явления погоды
-SHRA
Условия полета
MVFR
Аэропорт подробнее: